Shamrock, Texas
Current Conditions -  °F | °C
As of 9:15 AM on Friday 31 Oct 2014 (Local Time) from KHHF Reporting Station
Clear Clear  
Wind Chill: 37°   Ceiling: Unl
Heat Index: 42°   Visibility: NA
Dew Point: 36°   Wind: 8mph
Humidity: 80%   Direction: 20°NNE
Pressure: 30.47"   Gusts: NA
Location:  35.21°N, 100.25°W
Report Text: KHHF 311415Z AUTO 02007KT CLR 06/02 A3047 RMK AO2 T00560024 PWINO
Loading
Personal Weather Stations






























Interactive Weather Map
Tropical Storm Tracking
New forecast layout! Learn more

10-Day Weather Forecast

Advertisements
Track Severe Weather on mobile